Time,TemperatureF,DewpointF,PressureIn,WindDirection,WindDirectionDegrees,WindSpeedMPH,WindSpeedGustMPH,Humidity,HourlyPrecipIn,Conditions,Clouds,dailyrainin,SolarRadiationWatts/m^2,SoftwareType,DateUTC
2013-01-24 00:00:00,31.0,11.2,30.68,SSE,153,2.0,2.0,43,0.00,,,0.00,0,LWC V2.00 B727,2013-01-24 07:00:00,
2013-01-24 00:05:00,30.8,11.5,30.68,SE,146,2.0,3.0,44,0.00,,,0.00,0,LWC V2.00 B727,2013-01-24 07:05:00,
2013-01-24 00:10:00,30.6,11.8,30.68,SE,146,0.0,1.0,45,0.00,,,0.00,0,LWC V2.00 B727,2013-01-24 07:10:00,
2013-01-24 00:15:00,30.4,11.6,30.68,SE,142,2.0,4.0,45,0.00,,,0.00,0,LWC V2.00 B727,2013-01-24 07:15:00,
2013-01-24 00:20:00,30.3,12.0,30.68,SE,142,1.0,2.0,46,0.00,,,0.00,0,LWC V2.00 B727,2013-01-24 07:20:00,
2013-01-24 00:25:00,30.4,11.1,30.68,SE,141,0.0,2.0,44,0.00,,,0.00,0,LWC V2.00 B727,2013-01-24 07:25:00,
2013-01-24 00:30:00,30.3,12.0,30.68,SE,140,0.0,2.0,46,0.00,,,0.00,0,LWC V2.00 B727,2013-01-24 07:30:00,
2013-01-24 00:35:00,30.1,12.3,30.68,SE,140,0.0,2.0,47,0.00,,,0.00,0,LWC V2.00 B727,2013-01-24 07:35:00,
2013-01-24 00:40:00,29.9,12.6,30.67,SE,140,0.0,1.0,48,0.00,,,0.00,0,LWC V2.00 B727,2013-01-24 07:40:00,
2013-01-24 00:45:00,29.8,11.6,30.67,SE,144,2.0,3.0,46,0.00,,,0.00,0,LWC V2.00 B727,2013-01-24 07:45:00,
2013-01-24 00:50:00,30.4,11.6,30.67,SSE,149,0.0,2.0,45,0.00,,,0.00,0,LWC V2.00 B727,2013-01-24 07:50:00,
2013-01-24 00:55:00,30.8,11.5,30.68,SSE,148,2.0,4.0,44,0.00,,,0.00,0,LWC V2.00 B727,2013-01-24 07:55:00,
2013-01-24 01:00:00,31.2,11.3,30.68,SE,146,2.0,3.0,43,0.00,,,0.00,0,LWC V2.00 B727,2013-01-24 08:00:00,
2013-01-24 01:05:00,31.3,11.4,30.68,SE,146,2.0,4.0,43,0.00,,,0.00,0,LWC V2.00 B727,2013-01-24 08:05:00,
2013-01-24 01:10:00,31.5,10.5,30.68,SSE,150,1.0,2.0,41,0.00,,,0.00,0,LWC V2.00 B727,2013-01-24 08:10:00,
2013-01-24 01:15:00,31.7,10.7,30.68,SSE,152,2.0,3.0,41,0.00,,,0.00,0,LWC V2.00 B727,2013-01-24 08:15:00,
2013-01-24 01:20:00,31.6,10.6,30.68,SSE,153,1.0,3.0,41,0.00,,,0.00,0,LWC V2.00 B727,2013-01-24 08:20:00,
2013-01-24 01:25:00,31.4,10.5,30.68,SSE,152,3.0,3.0,41,0.00,,,0.00,0,LWC V2.00 B727,2013-01-24 08:25:00,
2013-01-24 01:30:00,31.4,9.9,30.68,SSE,152,2.0,2.0,40,0.00,,,0.00,0,LWC V2.00 B727,2013-01-24 08:30:00,
2013-01-24 01:35:00,31.4,9.3,30.69,SSE,152,1.0,3.0,39,0.00,,,0.00,0,LWC V2.00 B727,2013-01-24 08:35:00,
2013-01-24 01:40:00,31.7,8.4,30.69,SSE,156,2.0,3.0,37,0.00,,,0.00,0,LWC V2.00 B727,2013-01-24 08:40:00,
2013-01-24 01:45:00,32.1,8.8,30.69,SSE,152,1.0,3.0,37,0.00,,,0.00,0,LWC V2.00 B727,2013-01-24 08:45:00,
2013-01-24 01:50:00,32.2,8.9,30.69,SSE,153,3.0,3.0,37,0.00,,,0.00,0,LWC V2.00 B727,2013-01-24 08:50:00,
2013-01-24 01:55:00,32.3,9.0,30.69,SSE,154,2.0,3.0,37,0.00,,,0.00,0,LWC V2.00 B727,2013-01-24 08:55:00,
2013-01-24 02:00:00,32.0,9.9,30.69,SSE,155,2.0,3.0,39,0.00,,,0.00,0,LWC V2.00 B727,2013-01-24 09:00:00,
2013-01-24 02:05:00,31.5,10.0,30.68,SSE,156,1.0,3.0,40,0.00,,,0.00,0,LWC V2.00 B727,2013-01-24 09:05:00,
2013-01-24 02:10:00,30.9,10.0,30.68,SSE,157,2.0,4.0,41,0.00,,,0.00,0,LWC V2.00 B727,2013-01-24 09:10:00,
2013-01-24 02:15:00,29.5,10.3,30.68,SSE,160,3.0,4.0,44,0.00,,,0.00,0,LWC V2.00 B727,2013-01-24 09:15:00,
2013-01-24 02:20:00,28.6,9.5,30.68,SSE,161,2.0,3.0,44,0.00,,,0.00,0,LWC V2.00 B727,2013-01-24 09:20:00,
2013-01-24 02:25:00,28.3,9.7,30.68,SSE,163,3.0,4.0,45,0.00,,,0.00,0,LWC V2.00 B727,2013-01-24 09:25:00,
2013-01-24 02:30:00,28.5,9.4,30.68,SSE,157,3.0,4.0,44,0.00,,,0.00,0,LWC V2.00 B727,2013-01-24 09:30:00,
2013-01-24 02:35:00,28.6,9.5,30.68,SSE,160,2.0,4.0,44,0.00,,,0.00,0,LWC V2.00 B727,2013-01-24 09:35:00,
2013-01-24 02:40:00,28.7,9.6,30.67,SSE,157,3.0,3.0,44,0.00,,,0.00,0,LWC V2.00 B727,2013-01-24 09:40:00,
2013-01-24 02:45:00,28.7,9.6,30.68,SSE,159,1.0,3.0,44,0.00,,,0.00,0,LWC V2.00 B727,2013-01-24 09:45:00,
2013-01-24 02:50:00,28.9,8.7,30.68,SSE,149,2.0,3.0,42,0.00,,,0.00,0,LWC V2.00 B727,2013-01-24 09:50:00,
2013-01-24 02:55:00,29.2,9.5,30.67,SSE,147,2.0,4.0,43,0.00,,,0.00,0,LWC V2.00 B727,2013-01-24 09:55:00,
2013-01-24 03:00:00,29.3,9.1,30.67,SE,146,3.0,4.0,42,0.00,,,0.00,0,LWC V2.00 B727,2013-01-24 10:00:00,
2013-01-24 03:05:00,29.3,9.1,30.68,SSE,164,4.0,6.0,42,0.00,,,0.00,0,LWC V2.00 B727,2013-01-24 10:05:00,
2013-01-24 03:10:00,29.3,9.6,30.67,SE,140,1.0,4.0,43,0.00,,,0.00,0,LWC V2.00 B727,2013-01-24 10:10:00,
2013-01-24 03:15:00,29.1,9.9,30.67,SSE,147,3.0,3.0,44,0.00,,,0.00,0,LWC V2.00 B727,2013-01-24 10:15:00,
2013-01-24 03:20:00,28.8,10.2,30.67,SSE,148,4.0,4.0,45,0.00,,,0.00,0,LWC V2.00 B727,2013-01-24 10:20:00,
2013-01-24 03:25:00,28.5,9.9,30.66,SSE,152,3.0,4.0,45,0.00,,,0.00,0,LWC V2.00 B727,2013-01-24 10:25:00,
2013-01-24 03:30:00,28.2,10.6,30.66,SSE,157,2.0,3.0,47,0.00,,,0.00,0,LWC V2.00 B727,2013-01-24 10:30:00,
2013-01-24 03:35:00,28.1,10.5,30.66,SSE,160,2.0,4.0,47,0.00,,,0.00,0,LWC V2.00 B727,2013-01-24 10:35:00,
2013-01-24 03:40:00,28.3,10.2,30.66,SE,138,1.0,3.0,46,0.00,,,0.00,0,LWC V2.00 B727,2013-01-24 10:40:00,
2013-01-24 03:45:00,28.4,10.3,30.66,SE,141,3.0,3.0,46,0.00,,,0.00,0,LWC V2.00 B727,2013-01-24 10:45:00,
2013-01-24 03:50:00,28.6,10.5,30.66,SSE,165,2.0,4.0,46,0.00,,,0.00,0,LWC V2.00 B727,2013-01-24 10:50:00,
2013-01-24 03:55:00,28.9,10.3,30.65,SSE,157,1.0,4.0,45,0.00,,,0.00,0,LWC V2.00 B727,2013-01-24 10:55:00,
2013-01-24 04:00:00,28.9,10.3,30.65,SSE,156,3.0,4.0,45,0.00,,,0.00,0,LWC V2.00 B727,2013-01-24 11:00:00,
2013-01-24 04:05:00,29.0,10.4,30.66,SSE,155,1.0,2.0,45,0.00,,,0.00,0,LWC V2.00 B727,2013-01-24 11:05:00,
2013-01-24 04:10:00,28.6,10.5,30.65,SE,132,2.0,3.0,46,0.00,,,0.00,0,LWC V2.00 B727,2013-01-24 11:10:00,
2013-01-24 04:15:00,28.3,10.2,30.66,SE,132,0.0,1.0,46,0.00,,,0.00,0,LWC V2.00 B727,2013-01-24 11:15:00,
2013-01-24 04:20:00,28.0,10.4,30.66,SE,132,0.0,1.0,47,0.00,,,0.00,0,LWC V2.00 B727,2013-01-24 11:20:00,
2013-01-24 04:25:00,27.6,9.1,30.66,SE,132,1.0,2.0,45,0.00,,,0.00,0,LWC V2.00 B727,2013-01-24 11:25:00,
2013-01-24 04:30:00,28.0,9.4,30.66,SE,132,0.0,1.0,45,0.00,,,0.00,0,LWC V2.00 B727,2013-01-24 11:30:00,
2013-01-24 04:35:00,28.0,9.4,30.66,SE,132,0.0,0.0,45,0.00,,,0.00,0,LWC V2.00 B727,2013-01-24 11:35:00,
2013-01-24 04:40:00,27.6,9.6,30.66,SE,132,0.0,0.0,46,0.00,,,0.00,0,LWC V2.00 B727,2013-01-24 11:40:00,
2013-01-24 04:45:00,27.0,9.5,30.66,SE,132,0.0,1.0,47,0.00,,,0.00,0,LWC V2.00 B727,2013-01-24 11:45:00,
2013-01-24 04:50:00,26.4,8.9,30.66,SE,132,0.0,0.0,47,0.00,,,0.00,0,LWC V2.00 B727,2013-01-24 11:50:00,
2013-01-24 04:55:00,26.1,9.1,30.67,SE,132,2.0,3.0,48,0.00,,,0.00,0,LWC V2.00 B727,2013-01-24 11:55:00,
2013-01-24 05:00:00,26.3,9.3,30.67,SE,132,0.0,1.0,48,0.00,,,0.00,0,LWC V2.00 B727,2013-01-24 12:00:00,
2013-01-24 05:05:00,26.1,9.1,30.66,SE,132,0.0,0.0,48,0.00,,,0.00,0,LWC V2.00 B727,2013-01-24 12:05:00,
2013-01-24 05:10:00,26.1,9.1,30.66,SE,132,3.0,3.0,48,0.00,,,0.00,0,LWC V2.00 B727,2013-01-24 12:10:00,
2013-01-24 05:15:00,26.1,9.1,30.66,SE,132,1.0,2.0,48,0.00,,,0.00,0,LWC V2.00 B727,2013-01-24 12:15:00,
2013-01-24 05:20:00,26.3,8.8,30.66,SE,132,1.0,1.0,47,0.00,,,0.00,0,LWC V2.00 B727,2013-01-24 12:20:00,
2013-01-24 05:25:00,26.5,8.6,30.66,SE,132,1.0,1.0,46,0.00,,,0.00,0,LWC V2.00 B727,2013-01-24 12:25:00,
2013-01-24 05:30:00,26.7,8.7,30.66,SE,132,0.0,0.0,46,0.00,,,0.00,0,LWC V2.00 B727,2013-01-24 12:30:00,
2013-01-24 05:35:00,26.2,8.3,30.66,SE,132,1.0,2.0,46,0.00,,,0.00,0,LWC V2.00 B727,2013-01-24 12:35:00,
2013-01-24 05:40:00,26.1,8.7,30.66,SE,132,0.0,0.0,47,0.00,,,0.00,0,LWC V2.00 B727,2013-01-24 12:40:00,
2013-01-24 05:45:00,25.7,8.8,30.66,SE,132,1.0,1.0,48,0.00,,,0.00,0,LWC V2.00 B727,2013-01-24 12:45:00,
2013-01-24 05:50:00,26.2,8.8,30.66,SE,132,1.0,2.0,47,0.00,,,0.00,0,LWC V2.00 B727,2013-01-24 12:50:00,
2013-01-24 05:55:00,26.5,8.6,30.66,SE,132,2.0,3.0,46,0.00,,,0.00,0,LWC V2.00 B727,2013-01-24 12:55:00,
2013-01-24 06:00:00,26.8,8.8,30.67,SE,132,1.0,2.0,46,0.00,,,0.00,0,LWC V2.00 B727,2013-01-24 13:00:00,
2013-01-24 06:05:00,27.0,8.5,30.67,SE,132,1.0,2.0,45,0.00,,,0.00,0,LWC V2.00 B727,2013-01-24 13:05:00,
2013-01-24 06:10:00,27.1,9.1,30.66,SE,133,1.0,3.0,46,0.00,,,0.00,0,LWC V2.00 B727,2013-01-24 13:10:00,
2013-01-24 06:15:00,26.7,8.7,30.67,SE,133,1.0,2.0,46,0.00,,,0.00,0,LWC V2.00 B727,2013-01-24 13:15:00,
2013-01-24 06:20:00,26.8,8.8,30.67,SE,133,2.0,2.0,46,0.00,,,0.00,0,LWC V2.00 B727,2013-01-24 13:20:00,
2013-01-24 06:25:00,26.9,8.9,30.67,SE,133,2.0,2.0,46,0.00,,,0.00,0,LWC V2.00 B727,2013-01-24 13:25:00,
2013-01-24 06:30:00,27.1,8.6,30.67,SE,133,0.0,1.0,45,0.00,,,0.00,0,LWC V2.00 B727,2013-01-24 13:30:00,
2013-01-24 06:35:00,27.2,8.7,30.67,SE,133,1.0,2.0,45,0.00,,,0.00,0,LWC V2.00 B727,2013-01-24 13:35:00,
2013-01-24 06:40:00,27.1,9.1,30.67,SE,133,0.0,1.0,46,0.00,,,0.00,0,LWC V2.00 B727,2013-01-24 13:40:00,
2013-01-24 06:45:00,27.1,9.1,30.68,SE,133,0.0,1.0,46,0.00,,,0.00,0,LWC V2.00 B727,2013-01-24 13:45:00,
2013-01-24 06:50:00,27.0,9.0,30.67,SE,133,1.0,1.0,46,0.00,,,0.00,0,LWC V2.00 B727,2013-01-24 13:50:00,
2013-01-24 06:55:00,26.8,9.3,30.67,SE,133,2.0,2.0,47,0.00,,,0.00,0,LWC V2.00 B727,2013-01-24 13:55:00,
2013-01-24 07:00:00,26.9,9.4,30.67,SE,133,0.0,2.0,47,0.00,,,0.00,0,LWC V2.00 B727,2013-01-24 14:00:00,
2013-01-24 07:05:00,27.0,9.5,30.68,SE,133,1.0,2.0,47,0.00,,,0.00,0,LWC V2.00 B727,2013-01-24 14:05:00,
2013-01-24 07:10:00,27.1,9.6,30.68,SE,133,2.0,2.0,47,0.00,,,0.00,5,LWC V2.00 B727,2013-01-24 14:10:00,
2013-01-24 07:15:00,27.5,9.5,30.68,SE,133,1.0,2.0,46,0.00,,,0.00,5,LWC V2.00 B727,2013-01-24 14:15:00,
2013-01-24 07:20:00,27.9,9.8,30.67,SE,133,1.0,2.0,46,0.00,,,0.00,7,LWC V2.00 B727,2013-01-24 14:20:00,
2013-01-24 07:25:00,28.2,9.6,30.67,SE,133,0.0,2.0,45,0.00,,,0.00,7,LWC V2.00 B727,2013-01-24 14:25:00,
2013-01-24 07:30:00,28.1,9.5,30.67,SE,133,0.0,2.0,45,0.00,,,0.00,9,LWC V2.00 B727,2013-01-24 14:30:00,
2013-01-24 07:35:00,28.3,9.7,30.67,SE,133,1.0,2.0,45,0.00,,,0.00,12,LWC V2.00 B727,2013-01-24 14:35:00,
2013-01-24 07:40:00,28.8,10.2,30.67,SE,134,1.0,2.0,45,0.00,,,0.00,49,LWC V2.00 B727,2013-01-24 14:40:00,
2013-01-24 07:45:00,28.7,10.6,30.67,SE,134,0.0,1.0,46,0.00,,,0.00,90,LWC V2.00 B727,2013-01-24 14:45:00,
2013-01-24 07:50:00,29.0,11.3,30.67,SE,135,0.0,0.0,47,0.00,,,0.00,104,LWC V2.00 B727,2013-01-24 14:50:00,
2013-01-24 07:55:00,29.1,10.9,30.67,SE,135,0.0,0.0,46,0.00,,,0.00,16,LWC V2.00 B727,2013-01-24 14:55:00,
2013-01-24 08:00:00,28.9,11.2,30.66,SE,134,0.0,0.0,47,0.00,,,0.00,18,LWC V2.00 B727,2013-01-24 15:00:00,
2013-01-24 08:05:00,28.8,11.1,30.67,SE,135,0.0,0.0,47,0.00,,,0.00,23,LWC V2.00 B727,2013-01-24 15:05:00,
2013-01-24 08:10:00,28.7,11.5,30.66,SE,135,0.0,0.0,48,0.00,,,0.00,32,LWC V2.00 B727,2013-01-24 15:10:00,
2013-01-24 08:15:00,28.7,12.0,30.66,SE,134,1.0,2.0,49,0.00,,,0.00,35,LWC V2.00 B727,2013-01-24 15:15:00,
2013-01-24 08:20:00,29.3,12.1,30.66,SE,136,1.0,3.0,48,0.00,,,0.00,35,LWC V2.00 B727,2013-01-24 15:20:00,
2013-01-24 08:25:00,29.5,12.3,30.66,SE,136,0.0,2.0,48,0.00,,,0.00,49,LWC V2.00 B727,2013-01-24 15:25:00,
2013-01-24 08:30:00,29.7,12.4,30.67,SE,136,1.0,2.0,48,0.00,,,0.00,70,LWC V2.00 B727,2013-01-24 15:30:00,
2013-01-24 08:35:00,30.1,12.8,30.67,SE,136,0.0,1.0,48,0.00,,,0.00,102,LWC V2.00 B727,2013-01-24 15:35:00,
2013-01-24 08:40:00,30.9,13.1,30.66,SE,136,0.0,1.0,47,0.00,,,0.00,387,LWC V2.00 B727,2013-01-24 15:40:00,
2013-01-24 08:45:00,31.7,13.8,30.67,SE,136,0.0,0.0,47,0.00,,,0.00,100,LWC V2.00 B727,2013-01-24 15:45:00,
2013-01-24 08:50:00,31.9,14.5,30.66,SE,136,0.0,0.0,48,0.00,,,0.00,93,LWC V2.00 B727,2013-01-24 15:50:00,
2013-01-24 08:55:00,32.0,13.6,30.66,SE,136,0.0,1.0,46,0.00,,,0.00,265,LWC V2.00 B727,2013-01-24 15:55:00,
2013-01-24 09:00:00,32.2,14.7,30.66,SE,136,1.0,1.0,48,0.00,,,0.00,439,LWC V2.00 B727,2013-01-24 16:00:00,
2013-01-24 09:05:00,32.9,15.4,30.66,SE,136,2.0,3.0,48,0.00,,,0.00,482,LWC V2.00 B727,2013-01-24 16:05:00,
2013-01-24 09:10:00,34.3,15.7,30.66,SE,136,0.0,0.0,46,0.00,,,0.00,471,LWC V2.00 B727,2013-01-24 16:10:00,
2013-01-24 09:15:00,35.3,17.1,30.66,SE,136,0.0,0.0,47,0.00,,,0.00,469,LWC V2.00 B727,2013-01-24 16:15:00,
2013-01-24 09:20:00,36.0,17.3,30.65,SE,136,0.0,0.0,46,0.00,,,0.00,513,LWC V2.00 B727,2013-01-24 16:20:00,
2013-01-24 09:25:00,36.9,19.1,30.65,SE,136,0.0,0.0,48,0.00,,,0.00,563,LWC V2.00 B727,2013-01-24 16:25:00,
2013-01-24 09:30:00,37.9,16.9,30.65,SE,136,0.0,1.0,42,0.00,,,0.00,257,LWC V2.00 B727,2013-01-24 16:30:00,
2013-01-24 09:35:00,38.9,18.3,30.65,SE,136,0.0,0.0,43,0.00,,,0.00,255,LWC V2.00 B727,2013-01-24 16:35:00,
2013-01-24 09:40:00,39.6,19.0,30.65,SE,136,0.0,0.0,43,0.00,,,0.00,343,LWC V2.00 B727,2013-01-24 16:40:00,
2013-01-24 09:45:00,40.3,19.1,30.66,SE,136,0.0,0.0,42,0.00,,,0.00,392,LWC V2.00 B727,2013-01-24 16:45:00,
2013-01-24 09:50:00,40.9,17.3,30.66,SE,136,0.0,0.0,38,0.00,,,0.00,448,LWC V2.00 B727,2013-01-24 16:50:00,
2013-01-24 09:55:00,41.7,17.4,30.66,SE,134,2.0,2.0,37,0.00,,,0.00,564,LWC V2.00 B727,2013-01-24 16:55:00,
2013-01-24 10:00:00,42.7,16.3,30.66,NNE,14,0.0,4.0,34,0.00,,,0.00,561,LWC V2.00 B727,2013-01-24 17:00:00,
2013-01-24 10:05:00,43.7,18.5,30.65,North,0,3.0,4.0,36,0.00,,,0.00,573,LWC V2.00 B727,2013-01-24 17:05:00,
2013-01-24 10:10:00,44.6,18.0,30.65,NNE,31,0.0,1.0,34,0.00,,,0.00,585,LWC V2.00 B727,2013-01-24 17:10:00,
2013-01-24 10:15:00,45.2,17.8,30.65,North,10,2.0,4.0,33,0.00,,,0.00,603,LWC V2.00 B727,2013-01-24 17:15:00,
2013-01-24 10:20:00,45.8,17.6,30.64,SW,236,0.0,2.0,32,0.00,,,0.00,621,LWC V2.00 B727,2013-01-24 17:20:00,
2013-01-24 10:25:00,46.4,18.9,30.64,SSW,202,2.0,5.0,33,0.00,,,0.00,615,LWC V2.00 B727,2013-01-24 17:25:00,
2013-01-24 10:30:00,46.7,16.9,30.64,WSW,245,2.0,6.0,30,0.00,,,0.00,446,LWC V2.00 B727,2013-01-24 17:30:00,
2013-01-24 10:35:00,47.0,18.7,30.64,SSW,210,2.0,4.0,32,0.00,,,0.00,722,LWC V2.00 B727,2013-01-24 17:35:00,
2013-01-24 10:40:00,47.4,18.3,30.64,SSE,162,2.0,3.0,31,0.00,,,0.00,568,LWC V2.00 B727,2013-01-24 17:40:00,
2013-01-24 10:45:00,47.7,17.8,30.63,WSW,241,0.0,6.0,30,0.00,,,0.00,529,LWC V2.00 B727,2013-01-24 17:45:00,
2013-01-24 10:50:00,47.9,17.2,30.63,WSW,251,1.0,6.0,29,0.00,,,0.00,643,LWC V2.00 B727,2013-01-24 17:50:00,
2013-01-24 10:55:00,48.1,18.9,30.63,WSW,245,4.0,7.0,31,0.00,,,0.00,731,LWC V2.00 B727,2013-01-24 17:55:00,
2013-01-24 11:00:00,48.4,18.4,30.63,SW,236,5.0,8.0,30,0.00,,,0.00,740,LWC V2.00 B727,2013-01-24 18:00:00,
2013-01-24 11:05:00,48.5,18.5,30.63,South,175,8.0,8.0,30,0.00,,,0.00,705,LWC V2.00 B727,2013-01-24 18:05:00,
2013-01-24 11:10:00,48.5,18.5,30.63,SW,233,2.0,6.0,30,0.00,,,0.00,689,LWC V2.00 B727,2013-01-24 18:10:00,
2013-01-24 11:15:00,48.5,18.5,30.62,WSW,239,3.0,8.0,30,0.00,,,0.00,687,LWC V2.00 B727,2013-01-24 18:15:00,
2013-01-24 11:20:00,48.4,19.2,30.62,South,173,3.0,4.0,31,0.00,,,0.00,691,LWC V2.00 B727,2013-01-24 18:20:00,
2013-01-24 11:25:00,48.5,18.5,30.62,WSW,248,4.0,10.0,30,0.00,,,0.00,694,LWC V2.00 B727,2013-01-24 18:25:00,
2013-01-24 11:30:00,48.5,20.0,30.62,NE,46,1.0,5.0,32,0.00,,,0.00,696,LWC V2.00 B727,2013-01-24 18:30:00,
2013-01-24 11:35:00,48.5,18.5,30.61,SW,236,0.0,6.0,30,0.00,,,0.00,700,LWC V2.00 B727,2013-01-24 18:35:00,
2013-01-24 11:40:00,48.8,18.8,30.61,South,191,5.0,9.0,30,0.00,,,0.00,694,LWC V2.00 B727,2013-01-24 18:40:00,
2013-01-24 11:45:00,48.8,19.5,30.61,WSW,238,4.0,9.0,31,0.00,,,0.00,714,LWC V2.00 B727,2013-01-24 18:45:00,
2013-01-24 11:50:00,48.9,20.4,30.60,WSW,250,14.0,14.0,32,0.00,,,0.00,714,LWC V2.00 B727,2013-01-24 18:50:00,
2013-01-24 11:55:00,48.8,18.8,30.60,WSW,245,5.0,8.0,30,0.00,,,0.00,715,LWC V2.00 B727,2013-01-24 18:55:00,
2013-01-24 12:00:00,49.1,19.8,30.59,WSW,248,4.0,5.0,31,0.00,,,0.00,735,LWC V2.00 B727,2013-01-24 19:00:00,
2013-01-24 12:05:00,49.2,21.3,30.59,SW,234,2.0,5.0,33,0.00,,,0.00,731,LWC V2.00 B727,2013-01-24 19:05:00,
2013-01-24 12:10:00,49.4,20.0,30.59,SW,217,3.0,8.0,31,0.00,,,0.00,686,LWC V2.00 B727,2013-01-24 19:10:00,
2013-01-24 12:15:00,49.7,21.1,30.58,SSW,213,3.0,5.0,32,0.00,,,0.00,715,LWC V2.00 B727,2013-01-24 19:15:00,
2013-01-24 12:20:00,50.1,20.7,30.58,ENE,58,3.0,6.0,31,0.00,,,0.00,740,LWC V2.00 B727,2013-01-24 19:20:00,
2013-01-24 12:25:00,50.1,20.7,30.58,WSW,246,8.0,11.0,31,0.00,,,0.00,722,LWC V2.00 B727,2013-01-24 19:25:00,
2013-01-24 12:30:00,49.7,20.3,30.58,SE,132,2.0,7.0,31,0.00,,,0.00,575,LWC V2.00 B727,2013-01-24 19:30:00,
2013-01-24 12:35:00,49.6,20.2,30.57,SSW,195,9.0,15.0,31,0.00,,,0.00,682,LWC V2.00 B727,2013-01-24 19:35:00,
2013-01-24 12:40:00,49.5,20.9,30.57,SW,226,4.0,9.0,32,0.00,,,0.00,679,LWC V2.00 B727,2013-01-24 19:40:00,
2013-01-24 12:45:00,49.4,20.0,30.57,WSW,246,11.0,11.0,31,0.00,,,0.00,550,LWC V2.00 B727,2013-01-24 19:45:00,
2013-01-24 12:50:00,49.2,20.6,30.57,WSW,248,3.0,12.0,32,0.00,,,0.00,765,LWC V2.00 B727,2013-01-24 19:50:00,
2013-01-24 12:55:00,50.0,22.0,30.57,WSW,237,9.0,9.0,33,0.00,,,0.00,705,LWC V2.00 B727,2013-01-24 19:55:00,
2013-01-24 13:00:00,50.1,20.7,30.57,SW,234,5.0,12.0,31,0.00,,,0.00,758,LWC V2.00 B727,2013-01-24 20:00:00,
2013-01-24 13:05:00,50.1,21.4,30.57,WSW,238,7.0,11.0,32,0.00,,,0.00,715,LWC V2.00 B727,2013-01-24 20:05:00,
2013-01-24 13:10:00,50.1,20.7,30.56,SSW,207,4.0,9.0,31,0.00,,,0.00,483,LWC V2.00 B727,2013-01-24 20:10:00,
2013-01-24 13:15:00,49.8,21.1,30.56,SW,229,4.0,9.0,32,0.00,,,0.00,712,LWC V2.00 B727,2013-01-24 20:15:00,
2013-01-24 13:20:00,49.9,22.0,30.56,SSW,212,3.0,9.0,33,0.00,,,0.00,689,LWC V2.00 B727,2013-01-24 20:20:00,
2013-01-24 13:25:00,50.1,21.4,30.56,SW,228,6.0,14.0,32,0.00,,,0.00,673,LWC V2.00 B727,2013-01-24 20:25:00,
2013-01-24 13:30:00,50.3,21.6,30.56,WSW,239,8.0,11.0,32,0.00,,,0.00,668,LWC V2.00 B727,2013-01-24 20:30:00,
2013-01-24 13:35:00,50.2,21.5,30.56,WSW,248,2.0,12.0,32,0.00,,,0.00,592,LWC V2.00 B727,2013-01-24 20:35:00,
2013-01-24 13:40:00,50.4,21.7,30.56,SW,227,7.0,8.0,32,0.00,,,0.00,675,LWC V2.00 B727,2013-01-24 20:40:00,
2013-01-24 13:45:00,50.7,21.9,30.55,WSW,249,5.0,11.0,32,0.00,,,0.00,650,LWC V2.00 B727,2013-01-24 20:45:00,
2013-01-24 13:50:00,50.8,22.7,30.55,WSW,246,9.0,9.0,33,0.00,,,0.00,629,LWC V2.00 B727,2013-01-24 20:50:00,
2013-01-24 13:55:00,51.0,22.9,30.54,West,269,0.0,4.0,33,0.00,,,0.00,640,LWC V2.00 B727,2013-01-24 20:55:00,
2013-01-24 14:00:00,50.9,22.1,30.54,WSW,249,0.0,8.0,32,0.00,,,0.00,626,LWC V2.00 B727,2013-01-24 21:00:00,
2013-01-24 14:05:00,50.8,22.0,30.54,SSW,211,3.0,11.0,32,0.00,,,0.00,573,LWC V2.00 B727,2013-01-24 21:05:00,
2013-01-24 14:10:00,50.7,22.7,30.54,South,186,1.0,6.0,33,0.00,,,0.00,596,LWC V2.00 B727,2013-01-24 21:10:00,
2013-01-24 14:15:00,51.0,22.9,30.54,WSW,237,1.0,7.0,33,0.00,,,0.00,580,LWC V2.00 B727,2013-01-24 21:15:00,
2013-01-24 14:20:00,51.0,22.9,30.54,NW,321,1.0,8.0,33,0.00,,,0.00,570,LWC V2.00 B727,2013-01-24 21:20:00,
2013-01-24 14:25:00,50.5,23.2,30.54,North,5,4.0,7.0,34,0.00,,,0.00,561,LWC V2.00 B727,2013-01-24 21:25:00,
2013-01-24 14:30:00,50.6,24.0,30.54,WSW,240,6.0,7.0,35,0.00,,,0.00,503,LWC V2.00 B727,2013-01-24 21:30:00,
2013-01-24 14:35:00,50.5,23.2,30.54,WSW,250,3.0,13.0,34,0.00,,,0.00,543,LWC V2.00 B727,2013-01-24 21:35:00,
2013-01-24 14:40:00,50.5,23.9,30.54,WSW,238,6.0,8.0,35,0.00,,,0.00,450,LWC V2.00 B727,2013-01-24 21:40:00,
2013-01-24 14:45:00,50.3,23.0,30.54,WSW,246,2.0,15.0,34,0.00,,,0.00,512,LWC V2.00 B727,2013-01-24 21:45:00,
2013-01-24 14:50:00,50.3,23.0,30.54,SW,235,4.0,9.0,34,0.00,,,0.00,501,LWC V2.00 B727,2013-01-24 21:50:00,
2013-01-24 14:55:00,50.3,23.0,30.54,WSW,242,5.0,11.0,34,0.00,,,0.00,424,LWC V2.00 B727,2013-01-24 21:55:00,
2013-01-24 15:00:00,50.3,23.0,30.55,WSW,241,3.0,7.0,34,0.00,,,0.00,496,LWC V2.00 B727,2013-01-24 22:00:00,
2013-01-24 15:06:00,49.9,22.7,30.54,SW,232,7.0,9.0,34,0.00,,,0.00,74,LWC V2.00 B727,2013-01-24 22:06:00,
2013-01-24 15:11:00,49.3,22.8,30.54,West,273,2.0,6.0,35,0.00,,,0.00,408,LWC V2.00 B727,2013-01-24 22:11:00,
2013-01-24 15:16:00,49.3,22.8,30.54,SW,231,4.0,5.0,35,0.00,,,0.00,408,LWC V2.00 B727,2013-01-24 22:16:00,
2013-01-24 15:21:00,49.5,22.3,30.54,SW,233,3.0,7.0,34,0.00,,,0.00,413,LWC V2.00 B727,2013-01-24 22:21:00,
2013-01-24 15:26:00,49.7,23.2,30.54,NNW,334,1.0,9.0,35,0.00,,,0.00,401,LWC V2.00 B727,2013-01-24 22:26:00,
2013-01-24 15:31:00,49.9,23.4,30.54,WSW,245,5.0,13.0,35,0.00,,,0.00,378,LWC V2.00 B727,2013-01-24 22:31:00,
2013-01-24 15:36:00,50.0,23.4,30.54,WSW,247,1.0,7.0,35,0.00,,,0.00,301,LWC V2.00 B727,2013-01-24 22:36:00,
2013-01-24 15:41:00,49.9,23.4,30.54,WSW,239,1.0,6.0,35,0.00,,,0.00,353,LWC V2.00 B727,2013-01-24 22:41:00,
2013-01-24 15:46:00,49.8,22.6,30.54,WSW,252,5.0,6.0,34,0.00,,,0.00,341,LWC V2.00 B727,2013-01-24 22:46:00,
2013-01-24 15:51:00,49.9,22.7,30.54,SW,223,2.0,7.0,34,0.00,,,0.00,353,LWC V2.00 B727,2013-01-24 22:51:00,
2013-01-24 15:56:00,49.7,22.5,30.55,WSW,243,3.0,7.0,34,0.00,,,0.00,343,LWC V2.00 B727,2013-01-24 22:56:00,
2013-01-24 16:01:00,49.8,22.6,30.54,SW,218,4.0,4.0,34,0.00,,,0.00,302,LWC V2.00 B727,2013-01-24 23:01:00,
2013-01-24 16:06:00,49.7,22.5,30.54,WSW,253,4.0,5.0,34,0.00,,,0.00,313,LWC V2.00 B727,2013-01-24 23:06:00,
2013-01-24 16:11:00,49.6,22.4,30.54,SW,225,2.0,6.0,34,0.00,,,0.00,102,LWC V2.00 B727,2013-01-24 23:11:00,
2013-01-24 16:16:00,49.2,22.7,30.54,SW,215,0.0,5.0,35,0.00,,,0.00,174,LWC V2.00 B727,2013-01-24 23:16:00,
2013-01-24 16:21:00,48.9,22.5,30.54,WSW,252,5.0,6.0,35,0.00,,,0.00,102,LWC V2.00 B727,2013-01-24 23:21:00,
2013-01-24 16:26:00,48.4,22.7,30.55,SW,235,0.0,7.0,36,0.00,,,0.00,54,LWC V2.00 B727,2013-01-24 23:26:00,
2013-01-24 16:31:00,47.9,22.9,30.55,SW,236,2.0,4.0,37,0.00,,,0.00,33,LWC V2.00 B727,2013-01-24 23:31:00,
2013-01-24 16:36:00,47.4,22.5,30.55,SW,214,2.0,8.0,37,0.00,,,0.00,35,LWC V2.00 B727,2013-01-24 23:36:00,
2013-01-24 16:41:00,47.1,22.2,30.55,SW,236,2.0,6.0,37,0.00,,,0.00,30,LWC V2.00 B727,2013-01-24 23:41:00,
2013-01-24 16:46:00,46.9,22.0,30.55,WSW,245,1.0,5.0,37,0.00,,,0.00,21,LWC V2.00 B727,2013-01-24 23:46:00,
2013-01-24 16:51:00,46.7,22.5,30.55,SW,234,2.0,4.0,38,0.00,,,0.00,23,LWC V2.00 B727,2013-01-24 23:51:00,
2013-01-24 16:56:00,46.4,22.2,30.55,WSW,242,1.0,5.0,38,0.00,,,0.00,16,LWC V2.00 B727,2013-01-24 23:56:00,
2013-01-24 17:01:00,46.2,22.0,30.55,WSW,245,2.0,7.0,38,0.00,,,0.00,12,LWC V2.00 B727,2013-01-25 00:01:00,
2013-01-24 17:06:00,46.0,21.8,30.56,WSW,251,6.0,6.0,38,0.00,,,0.00,11,LWC V2.00 B727,2013-01-25 00:06:00,
2013-01-24 17:11:00,45.9,22.4,30.56,SW,236,2.0,4.0,39,0.00,,,0.00,11,LWC V2.00 B727,2013-01-25 00:11:00,
2013-01-24 17:16:00,45.6,22.7,30.56,SSW,207,1.0,4.0,40,0.00,,,0.00,5,LWC V2.00 B727,2013-01-25 00:16:00,
2013-01-24 17:21:00,45.4,21.9,30.56,SSW,207,2.0,3.0,39,0.00,,,0.00,0,LWC V2.00 B727,2013-01-25 00:21:00,
2013-01-24 17:26:00,45.1,21.6,30.56,SSW,206,2.0,3.0,39,0.00,,,0.00,0,LWC V2.00 B727,2013-01-25 00:26:00,
2013-01-24 17:31:00,45.0,22.7,30.56,SSW,206,2.0,3.0,41,0.00,,,0.00,0,LWC V2.00 B727,2013-01-25 00:31:00,
2013-01-24 17:36:00,44.7,22.5,30.57,SSW,207,0.0,2.0,41,0.00,,,0.00,0,LWC V2.00 B727,2013-01-25 00:36:00,
2013-01-24 17:41:00,44.5,22.3,30.57,SSW,207,1.0,3.0,41,0.00,,,0.00,0,LWC V2.00 B727,2013-01-25 00:41:00,
2013-01-24 17:46:00,44.2,22.6,30.57,SSW,206,1.0,2.0,42,0.00,,,0.00,0,LWC V2.00 B727,2013-01-25 00:46:00,
2013-01-24 17:51:00,43.9,22.9,30.57,SSW,196,2.0,4.0,43,0.00,,,0.00,0,LWC V2.00 B727,2013-01-25 00:51:00,
2013-01-24 17:56:00,43.6,22.6,30.57,WSW,239,2.0,4.0,43,0.00,,,0.00,0,LWC V2.00 B727,2013-01-25 00:56:00,
2013-01-24 18:01:00,43.4,22.4,30.57,SW,230,2.0,3.0,43,0.00,,,0.00,0,LWC V2.00 B727,2013-01-25 01:01:00,
2013-01-24 18:06:00,43.2,22.2,30.57,SW,232,3.0,4.0,43,0.00,,,0.00,0,LWC V2.00 B727,2013-01-25 01:06:00,
2013-01-24 18:11:00,42.9,22.0,30.57,WSW,252,3.0,6.0,43,0.00,,,0.00,0,LWC V2.00 B727,2013-01-25 01:11:00,
2013-01-24 18:16:00,42.8,21.9,30.57,WSW,251,4.0,7.0,43,0.00,,,0.00,0,LWC V2.00 B727,2013-01-25 01:16:00,
2013-01-24 18:21:00,42.7,22.3,30.57,SW,232,2.0,6.0,44,0.00,,,0.00,0,LWC V2.00 B727,2013-01-25 01:21:00,
2013-01-24 18:26:00,42.6,21.7,30.57,WSW,243,4.0,9.0,43,0.00,,,0.00,0,LWC V2.00 B727,2013-01-25 01:26:00,
2013-01-24 18:31:00,42.5,21.6,30.57,WSW,253,4.0,7.0,43,0.00,,,0.00,0,LWC V2.00 B727,2013-01-25 01:31:00,
2013-01-24 18:36:00,42.4,21.5,30.57,WSW,246,6.0,9.0,43,0.00,,,0.00,0,LWC V2.00 B727,2013-01-25 01:36:00,
2013-01-24 18:41:00,42.3,22.0,30.57,WSW,241,3.0,8.0,44,0.00,,,0.00,0,LWC V2.00 B727,2013-01-25 01:41:00,
2013-01-24 18:46:00,42.2,21.9,30.57,WSW,249,5.0,7.0,44,0.00,,,0.00,0,LWC V2.00 B727,2013-01-25 01:46:00,
2013-01-24 18:51:00,42.1,21.8,30.57,WSW,242,5.0,6.0,44,0.00,,,0.00,0,LWC V2.00 B727,2013-01-25 01:51:00,
2013-01-24 18:56:00,41.9,21.1,30.57,WSW,245,2.0,7.0,43,0.00,,,0.00,0,LWC V2.00 B727,2013-01-25 01:56:00,
2013-01-24 19:01:00,41.9,21.6,30.57,WSW,242,1.0,2.0,44,0.00,,,0.00,0,LWC V2.00 B727,2013-01-25 02:01:00,
2013-01-24 19:06:00,41.8,21.0,30.57,WSW,243,2.0,3.0,43,0.00,,,0.00,0,LWC V2.00 B727,2013-01-25 02:06:00,
2013-01-24 19:11:00,41.6,21.3,30.57,WSW,240,3.0,4.0,44,0.00,,,0.00,0,LWC V2.00 B727,2013-01-25 02:11:00,
2013-01-24 19:16:00,41.4,21.1,30.57,WSW,240,0.0,3.0,44,0.00,,,0.00,0,LWC V2.00 B727,2013-01-25 02:16:00,
2013-01-24 19:21:00,41.2,21.0,30.57,WSW,242,2.0,4.0,44,0.00,,,0.00,0,LWC V2.00 B727,2013-01-25 02:21:00,
2013-01-24 19:26:00,40.9,21.2,30.57,WSW,242,3.0,4.0,45,0.00,,,0.00,0,LWC V2.00 B727,2013-01-25 02:26:00,
2013-01-24 19:31:00,40.7,21.0,30.56,WSW,244,3.0,6.0,45,0.00,,,0.00,0,LWC V2.00 B727,2013-01-25 02:31:00,
2013-01-24 19:36:00,40.6,21.5,30.57,WSW,238,3.0,6.0,46,0.00,,,0.00,0,LWC V2.00 B727,2013-01-25 02:36:00,
2013-01-24 19:41:00,40.4,21.3,30.56,WSW,248,3.0,6.0,46,0.00,,,0.00,0,LWC V2.00 B727,2013-01-25 02:41:00,
2013-01-24 19:46:00,40.4,21.3,30.56,WSW,249,4.0,5.0,46,0.00,,,0.00,0,LWC V2.00 B727,2013-01-25 02:46:00,
2013-01-24 19:51:00,40.5,21.9,30.56,WSW,244,2.0,5.0,47,0.00,,,0.00,0,LWC V2.00 B727,2013-01-25 02:51:00,
2013-01-24 19:56:00,40.5,21.4,30.56,WSW,246,4.0,6.0,46,0.00,,,0.00,0,LWC V2.00 B727,2013-01-25 02:56:00,
2013-01-24 20:01:00,40.4,21.3,30.56,WSW,250,6.0,9.0,46,0.00,,,0.00,0,LWC V2.00 B727,2013-01-25 03:01:00,
2013-01-24 20:06:00,40.2,21.6,30.56,WSW,247,4.0,6.0,47,0.00,,,0.00,0,LWC V2.00 B727,2013-01-25 03:06:00,
2013-01-24 20:11:00,40.0,21.4,30.56,SW,227,2.0,5.0,47,0.00,,,0.00,0,LWC V2.00 B727,2013-01-25 03:11:00,
2013-01-24 20:16:00,39.8,21.7,30.56,SSW,210,3.0,5.0,48,0.00,,,0.00,0,LWC V2.00 B727,2013-01-25 03:16:00,
2013-01-24 20:21:00,39.6,21.5,30.55,WSW,241,1.0,4.0,48,0.00,,,0.00,0,LWC V2.00 B727,2013-01-25 03:21:00,
2013-01-24 20:26:00,39.4,21.8,30.55,SW,222,1.0,3.0,49,0.00,,,0.00,0,LWC V2.00 B727,2013-01-25 03:26:00,
2013-01-24 20:31:00,39.1,21.1,30.55,SSW,198,2.0,3.0,48,0.00,,,0.00,0,LWC V2.00 B727,2013-01-25 03:31:00,
2013-01-24 20:36:00,38.6,21.6,30.56,SW,217,5.0,5.0,50,0.00,,,0.00,0,LWC V2.00 B727,2013-01-25 03:36:00,
2013-01-24 20:41:00,38.3,21.3,30.57,South,184,3.0,5.0,50,0.00,,,0.00,0,LWC V2.00 B727,2013-01-25 03:41:00,
2013-01-24 20:46:00,38.2,21.7,30.57,SSW,207,3.0,5.0,51,0.00,,,0.00,0,LWC V2.00 B727,2013-01-25 03:46:00,
2013-01-24 20:51:00,38.4,21.9,30.57,SSW,194,3.0,6.0,51,0.00,,,0.00,0,LWC V2.00 B727,2013-01-25 03:51:00,
2013-01-24 20:56:00,38.6,22.1,30.58,South,172,2.0,6.0,51,0.00,,,0.00,0,LWC V2.00 B727,2013-01-25 03:56:00,
2013-01-24 21:01:00,38.7,22.1,30.58,South,188,2.0,5.0,51,0.00,,,0.00,0,LWC V2.00 B727,2013-01-25 04:01:00,
2013-01-24 21:06:00,38.8,22.2,30.58,SSW,207,0.0,6.0,51,0.00,,,0.00,0,LWC V2.00 B727,2013-01-25 04:06:00,
2013-01-24 21:11:00,38.9,22.3,30.58,SSW,194,2.0,5.0,51,0.00,,,0.00,0,LWC V2.00 B727,2013-01-25 04:11:00,
2013-01-24 21:16:00,39.0,22.4,30.58,SSW,203,3.0,4.0,51,0.00,,,0.00,0,LWC V2.00 B727,2013-01-25 04:16:00,
2013-01-24 21:21:00,39.2,23.1,30.58,SSW,196,4.0,7.0,52,0.00,,,0.00,0,LWC V2.00 B727,2013-01-25 04:21:00,
2013-01-24 21:26:00,39.4,22.8,30.58,SW,215,4.0,6.0,51,0.00,,,0.00,0,LWC V2.00 B727,2013-01-25 04:26:00,
2013-01-24 21:31:00,39.5,23.3,30.58,SSW,202,4.0,7.0,52,0.00,,,0.00,0,LWC V2.00 B727,2013-01-25 04:31:00,
2013-01-24 21:36:00,39.6,23.0,30.58,WSW,249,3.0,6.0,51,0.00,,,0.00,0,LWC V2.00 B727,2013-01-25 04:36:00,
2013-01-24 21:41:00,39.6,23.0,30.58,SW,214,3.0,7.0,51,0.00,,,0.00,0,LWC V2.00 B727,2013-01-25 04:41:00,
2013-01-24 21:46:00,39.6,23.0,30.57,WSW,246,4.0,8.0,51,0.00,,,0.00,0,LWC V2.00 B727,2013-01-25 04:46:00,
2013-01-24 21:51:00,39.5,22.9,30.57,WSW,244,9.0,9.0,51,0.00,,,0.00,0,LWC V2.00 B727,2013-01-25 04:51:00,
2013-01-24 21:56:00,39.4,22.8,30.56,SW,231,4.0,5.0,51,0.00,,,0.00,0,LWC V2.00 B727,2013-01-25 04:56:00,
2013-01-24 22:00:00,39.3,22.7,30.57,WSW,238,2.0,6.0,51,0.00,,,0.00,0,LWC V2.00 B727,2013-01-25 05:00:00,
2013-01-24 22:01:00,39.3,22.7,30.57,WSW,239,2.0,4.0,51,0.00,,,0.00,0,LWC V2.00 B727,2013-01-25 05:01:00,
2013-01-24 22:06:00,39.2,22.6,30.57,WSW,245,0.0,0.0,51,0.00,,,0.00,0,LWC V2.00 B727,2013-01-25 05:06:00,
2013-01-24 22:11:00,39.0,22.4,30.57,WSW,245,0.0,0.0,51,0.00,,,0.00,0,LWC V2.00 B727,2013-01-25 05:11:00,
2013-01-24 22:16:00,38.7,22.6,30.57,SW,230,2.0,3.0,52,0.00,,,0.00,0,LWC V2.00 B727,2013-01-25 05:16:00,
2013-01-24 22:21:00,38.1,22.5,30.57,SW,225,2.0,3.0,53,0.00,,,0.00,0,LWC V2.00 B727,2013-01-25 05:21:00,
2013-01-24 22:26:00,37.3,22.6,30.56,SW,225,0.0,2.0,55,0.00,,,0.00,0,LWC V2.00 B727,2013-01-25 05:26:00,
2013-01-24 22:31:00,36.5,22.3,30.56,SW,225,0.0,1.0,56,0.00,,,0.00,0,LWC V2.00 B727,2013-01-25 05:31:00,
2013-01-24 22:36:00,36.2,22.5,30.56,SW,225,0.0,0.0,57,0.00,,,0.00,0,LWC V2.00 B727,2013-01-25 05:36:00,
2013-01-24 22:41:00,35.8,22.1,30.56,SW,225,0.0,1.0,57,0.00,,,0.00,0,LWC V2.00 B727,2013-01-25 05:41:00,
2013-01-24 22:46:00,35.5,23.4,30.56,SW,225,0.0,0.0,61,0.00,,,0.00,0,LWC V2.00 B727,2013-01-25 05:46:00,
2013-01-24 22:51:00,35.2,21.9,30.56,SW,225,0.0,0.0,58,0.00,,,0.00,0,LWC V2.00 B727,2013-01-25 05:51:00,
2013-01-24 22:56:00,35.0,21.3,30.55,SW,225,0.0,0.0,57,0.00,,,0.00,0,LWC V2.00 B727,2013-01-25 05:56:00,
2013-01-24 23:01:00,34.6,21.8,30.55,SW,225,0.0,1.0,59,0.00,,,0.00,0,LWC V2.00 B727,2013-01-25 06:01:00,
2013-01-24 23:06:00,34.3,21.9,30.55,SW,225,0.0,1.0,60,0.00,,,0.00,0,LWC V2.00 B727,2013-01-25 06:06:00,
2013-01-24 23:11:00,33.9,21.5,30.55,SW,225,0.0,0.0,60,0.00,,,0.00,0,LWC V2.00 B727,2013-01-25 06:11:00,
2013-01-24 23:16:00,33.7,21.7,30.55,SW,225,0.0,1.0,61,0.00,,,0.00,0,LWC V2.00 B727,2013-01-25 06:16:00,
2013-01-24 23:21:00,33.2,21.6,30.55,SW,225,0.0,0.0,62,0.00,,,0.00,0,LWC V2.00 B727,2013-01-25 06:21:00,
2013-01-24 23:26:00,32.8,21.6,30.55,SW,225,0.0,0.0,63,0.00,,,0.00,0,LWC V2.00 B727,2013-01-25 06:26:00,
2013-01-24 23:31:00,32.5,21.3,30.56,SW,225,0.0,0.0,63,0.00,,,0.00,0,LWC V2.00 B727,2013-01-25 06:31:00,
2013-01-24 23:36:00,32.2,21.8,30.55,SW,225,0.0,0.0,65,0.00,,,0.00,0,LWC V2.00 B727,2013-01-25 06:36:00,
2013-01-24 23:41:00,31.9,21.5,30.56,SW,225,0.0,0.0,65,0.00,,,0.00,0,LWC V2.00 B727,2013-01-25 06:41:00,
2013-01-24 23:46:00,31.7,20.9,30.56,SW,225,0.0,0.0,64,0.00,,,0.00,0,LWC V2.00 B727,2013-01-25 06:46:00,
2013-01-24 23:51:00,31.5,21.1,30.55,SW,225,0.0,0.0,65,0.00,,,0.00,0,LWC V2.00 B727,2013-01-25 06:51:00,
2013-01-24 23:56:00,31.1,20.7,30.55,SW,225,0.0,0.0,65,0.00,,,0.00,0,LWC V2.00 B727,2013-01-25 06:56:00,